Terminal Aerodrome Forecast
Issued by NWS

Home | Current Version | Previous Version | Text Only | Print | Product List | Glossary On
Versions: 1 2 3 4 5 6 7 8 9 10 11 12 13 14 15 16
000
FTUS44 KLZK 162300
TAFHOT
TAF
KHOT 162335Z 1700/1724 10005KT P6SM VCTS BKN040CB BKN100
      TEMPO 1700/1701 VRB15G30KT 2SM TSRA OVC012CB
     FM170200 09003KT P6SM SCT040
     FM170900 00000KT 3SM BR SCT020
      TEMPO 1710/1713 1SM BR OVC010
     FM171500 12003KT P6SM SCT020
     FM171800 21004KT P6SM SCT035=

USA.gov is the U.S. government's official web portal to all federal, state and local government web resources and services.